createdAt,value
2016-04-06T00:00:40.163Z,7.58
2016-04-06T00:01:40.135Z,7.56
2016-04-06T00:02:40.122Z,7.47
2016-04-06T00:03:40.093Z,7.47
2016-04-06T00:04:40.065Z,7.52
2016-04-06T00:05:40.036Z,7.41
2016-04-06T00:06:40.039Z,7.5
2016-04-06T00:07:39.995Z,7.45
2016-04-06T00:08:39.981Z,7.4
2016-04-06T00:09:39.937Z,7.4
2016-04-06T00:10:39.939Z,7.41
2016-04-06T00:11:39.895Z,7.45
2016-04-06T00:12:39.867Z,7.52
2016-04-06T00:13:39.838Z,7.42
2016-04-06T00:14:39.810Z,7.45
2016-04-06T00:15:39.781Z,7.45
2016-04-06T00:16:39.752Z,7.49
2016-04-06T00:17:39.739Z,7.4
2016-04-06T00:18:39.711Z,7.5
2016-04-06T00:19:39.683Z,7.44
2016-04-06T00:20:39.654Z,7.47
2016-04-06T00:21:39.625Z,7.45
2016-04-06T00:22:39.597Z,7.47
2016-04-06T00:23:39.585Z,7.45
2016-04-06T00:24:39.555Z,7.44
2016-04-06T00:25:39.527Z,7.45
2016-04-06T00:26:39.498Z,7.44
2016-04-06T00:27:39.485Z,7.45
2016-04-06T00:28:39.441Z,7.5
2016-04-06T00:29:39.413Z,7.47
2016-04-06T00:30:39.400Z,7.44
2016-04-06T00:31:39.372Z,7.53
2016-04-06T00:32:39.359Z,7.45
2016-04-06T00:33:39.315Z,7.45
2016-04-06T00:34:39.285Z,7.49
2016-04-06T00:35:39.257Z,7.44
2016-04-06T00:36:39.244Z,7.52
2016-04-06T00:37:39.247Z,7.55
2016-04-06T00:38:39.218Z,7.58
2016-04-06T00:39:39.159Z,7.59
2016-04-06T00:40:39.162Z,7.55
2016-04-06T00:41:39.101Z,7.5
2016-04-06T00:42:39.073Z,7.49
2016-04-06T00:43:39.059Z,7.47
2016-04-06T00:44:39.047Z,7.45
2016-04-06T00:45:39.034Z,7.44
2016-04-06T00:46:38.989Z,7.47
2016-04-06T00:47:38.962Z,7.44
2016-04-06T00:48:38.917Z,7.45
2016-04-06T00:49:38.905Z,7.45
2016-04-06T00:50:38.860Z,7.45
2016-04-06T00:51:38.863Z,7.41
2016-04-06T00:52:38.819Z,7.45
2016-04-06T00:53:38.805Z,7.44
2016-04-06T00:54:38.777Z,7.45
2016-04-06T00:55:38.748Z,7.42
2016-04-06T00:56:38.720Z,7.32
2016-04-06T00:57:38.707Z,7.37
2016-04-06T00:58:38.663Z,7.38
2016-04-06T00:59:38.650Z,7.38
2016-04-06T01:00:38.621Z,7.5
2016-04-06T01:01:38.593Z,7.44
2016-04-06T01:02:38.565Z,7.41
2016-04-06T01:03:38.551Z,7.47
2016-04-06T01:04:38.523Z,7.59
2016-04-06T01:05:38.493Z,7.58
2016-04-06T01:06:38.465Z,7.58
2016-04-06T01:07:38.453Z,7.58
2016-04-06T01:08:38.409Z,7.66
2016-04-06T01:09:38.380Z,7.69
2016-04-06T01:10:38.351Z,7.74
2016-04-06T01:11:38.323Z,7.78
2016-04-06T01:12:38.294Z,7.89
2016-04-06T01:13:38.281Z,7.94
2016-04-06T01:14:38.253Z,7.9
2016-04-06T01:15:38.240Z,7.97
2016-04-06T01:16:38.212Z,7.89
2016-04-06T01:17:38.183Z,7.92
2016-04-06T01:18:38.170Z,7.9
2016-04-06T01:19:37.985Z,7.92
2016-04-06T01:20:38.097Z,8.02
2016-04-06T01:21:38.069Z,8.02
2016-04-06T01:22:38.039Z,7.99
2016-04-06T01:23:38.011Z,8.04
2016-04-06T01:24:37.998Z,7.97
2016-04-06T01:25:37.970Z,8.04
2016-04-06T01:26:37.941Z,8.11
2016-04-06T01:27:37.928Z,8.12
2016-04-06T01:28:37.931Z,8
2016-04-06T01:29:37.887Z,8.12
2016-04-06T01:30:37.843Z,8.14
2016-04-06T01:31:37.813Z,8.14
2016-04-06T01:32:37.801Z,8.21
2016-04-06T01:33:37.772Z,8.25
2016-04-06T01:34:37.728Z,8.18
2016-04-06T01:35:37.731Z,8.25
2016-04-06T01:36:37.687Z,8.2
2016-04-06T01:37:37.674Z,8.22
2016-04-06T01:38:37.646Z,8.29
2016-04-06T01:39:37.617Z,8.25
2016-04-06T01:40:37.588Z,8.28
2016-04-06T01:41:37.575Z,8.28
2016-04-06T01:42:37.531Z,8.28
2016-04-06T01:43:37.518Z,8.32
2016-04-06T01:44:37.474Z,8.37
2016-04-06T01:45:37.462Z,8.35
2016-04-06T01:46:37.433Z,8.39
2016-04-06T01:47:37.436Z,8.35
2016-04-06T01:48:37.422Z,8.32
2016-04-06T01:49:37.362Z,8.39
2016-04-06T01:50:37.333Z,8.35
2016-04-06T01:51:37.305Z,8.35
2016-04-06T01:52:37.277Z,8.35
2016-04-06T01:53:37.263Z,8.44
2016-04-06T01:54:37.236Z,8.42
2016-04-06T01:55:37.222Z,8.37
2016-04-06T01:56:37.194Z,8.39
2016-04-06T01:57:37.150Z,8.37
2016-04-06T01:58:37.136Z,8.35
2016-04-06T01:59:37.093Z,8.39
2016-04-06T02:00:37.079Z,8.42
2016-04-06T02:01:37.051Z,8.35
2016-04-06T02:02:37.037Z,8.35
2016-04-06T02:03:37.009Z,8.35
2016-04-06T02:04:36.965Z,8.39
2016-04-06T02:05:36.968Z,8.42
2016-04-06T02:06:36.924Z,8.42
2016-04-06T02:07:36.942Z,8.42
2016-04-06T02:08:36.859Z,8.39
2016-04-06T02:09:36.846Z,8.42
2016-04-06T02:10:36.818Z,8.47
2016-04-06T02:11:36.790Z,8.42
2016-04-06T02:12:36.776Z,8.44
2016-04-06T02:13:36.732Z,8.32
2016-04-06T02:14:36.704Z,8.37
2016-04-06T02:15:36.691Z,8.39
2016-04-06T02:16:36.663Z,8.39
2016-04-06T02:17:36.649Z,8.42
2016-04-06T02:18:36.621Z,8.36
2016-04-06T02:19:36.592Z,8.3
2016-04-06T02:20:36.564Z,8.35
2016-04-06T02:21:36.551Z,8.37
2016-04-06T02:22:36.507Z,8.35
2016-04-06T02:23:36.494Z,8.32
2016-04-06T02:24:36.450Z,8.35
2016-04-06T02:25:36.437Z,8.42
2016-04-06T02:26:36.423Z,8.39
2016-04-06T02:27:36.379Z,8.33
2016-04-06T02:28:36.366Z,8.39
2016-04-06T02:29:36.353Z,8.39
2016-04-06T02:30:36.309Z,8.36
2016-04-06T02:31:36.281Z,8.39
2016-04-06T02:32:36.268Z,8.39
2016-04-06T02:33:36.225Z,8.42
2016-04-06T02:34:36.195Z,8.32
2016-04-06T02:35:36.167Z,8.45
2016-04-06T02:36:36.153Z,8.45
2016-04-06T02:37:36.125Z,8.42
2016-04-06T02:38:36.097Z,8.4
2016-04-06T02:39:36.068Z,8.48
2016-04-06T02:40:36.055Z,8.48
2016-04-06T02:41:36.027Z,8.51
2016-04-06T02:42:35.998Z,8.47
2016-04-06T02:43:35.969Z,8.51
2016-04-06T02:44:35.941Z,8.5
2016-04-06T02:45:35.928Z,8.55
2016-04-06T02:46:35.899Z,8.47
2016-04-06T02:47:35.887Z,8.5
2016-04-06T02:48:35.857Z,8.45
2016-04-06T02:49:35.813Z,8.45
2016-04-06T02:50:35.785Z,8.45
2016-04-06T02:51:35.757Z,8.44
2016-04-06T02:52:35.744Z,8.36
2016-04-06T02:53:35.731Z,8.47
2016-04-06T02:54:35.687Z,8.42
2016-04-06T02:55:35.673Z,8.37
2016-04-06T02:56:35.645Z,8.48
2016-04-06T02:57:35.617Z,8.53
2016-04-06T02:58:35.587Z,8.51
2016-04-06T02:59:35.559Z,8.53
2016-04-06T03:00:35.531Z,8.55
2016-04-06T03:01:35.518Z,8.53
2016-04-06T03:02:35.490Z,8.57
2016-04-06T03:03:35.461Z,8.63
2016-04-06T03:04:35.433Z,8.58
2016-04-06T03:05:35.404Z,8.58
2016-04-06T03:06:35.391Z,8.58
2016-04-06T03:07:35.378Z,8.63
2016-04-06T03:08:35.333Z,8.65
2016-04-06T03:09:35.321Z,8.66
2016-04-06T03:10:35.291Z,8.6
2016-04-06T03:11:35.263Z,8.71
2016-04-06T03:12:35.250Z,8.71
2016-04-06T03:13:35.222Z,8.73
2016-04-06T03:14:35.038Z,8.72
2016-04-06T03:15:35.149Z,8.72
2016-04-06T03:16:35.136Z,8.68
2016-04-06T03:17:35.107Z,8.69
2016-04-06T03:18:35.079Z,8.73
2016-04-06T03:19:35.066Z,8.75
2016-04-06T03:20:35.022Z,8.75
2016-04-06T03:21:34.994Z,8.78
2016-04-06T03:22:34.981Z,8.71
2016-04-06T03:23:34.952Z,8.66
2016-04-06T03:24:34.923Z,8.81
2016-04-06T03:25:34.910Z,8.69
2016-04-06T03:26:34.866Z,8.71
2016-04-06T03:27:34.853Z,8.73
2016-04-06T03:28:34.825Z,8.73
2016-04-06T03:29:34.795Z,8.75
2016-04-06T03:30:34.784Z,8.76
2016-04-06T03:31:34.739Z,8.72
2016-04-06T03:32:34.711Z,8.76
2016-04-06T03:33:34.714Z,8.78
2016-04-06T03:34:34.670Z,8.76
2016-04-06T03:35:34.641Z,8.73
2016-04-06T03:36:34.628Z,8.73
2016-04-06T03:37:34.599Z,8.76
2016-04-06T03:38:34.570Z,8.75
2016-04-06T03:39:34.541Z,8.75
2016-04-06T03:40:34.529Z,8.71
2016-04-06T03:41:34.532Z,8.76
2016-04-06T03:42:34.519Z,8.72
2016-04-06T03:43:34.444Z,8.72
2016-04-06T03:44:34.415Z,8.79
2016-04-06T03:45:34.386Z,8.72
2016-04-06T03:46:34.357Z,8.75
2016-04-06T03:47:34.344Z,8.75
2016-04-06T03:48:34.316Z,8.72
2016-04-06T03:49:34.304Z,8.73
2016-04-06T03:50:34.259Z,8.72
2016-04-06T03:51:34.246Z,8.71
2016-04-06T03:52:34.218Z,8.73
2016-04-06T03:53:34.189Z,8.78
2016-04-06T03:54:34.160Z,8.78
2016-04-06T03:55:34.132Z,8.75
2016-04-06T03:56:34.118Z,8.72
2016-04-06T03:57:34.090Z,8.78
2016-04-06T03:58:34.061Z,8.73
2016-04-06T03:59:34.034Z,8.72
2016-04-06T04:00:34.004Z,8.71
2016-04-06T04:01:33.992Z,8.73
2016-04-06T04:02:33.964Z,8.72
2016-04-06T04:03:33.934Z,8.73
2016-04-06T04:04:33.906Z,8.79
2016-04-06T04:05:33.877Z,8.81
2016-04-06T04:06:33.864Z,8.71
2016-04-06T04:07:33.836Z,8.73
2016-04-06T04:08:33.808Z,8.79
2016-04-06T04:09:33.779Z,8.81
2016-04-06T04:10:33.750Z,8.76
2016-04-06T04:11:33.738Z,8.75
2016-04-06T04:12:33.708Z,8.81
2016-04-06T04:13:33.524Z,8.76
2016-04-06T04:14:33.667Z,8.78
2016-04-06T04:15:33.624Z,8.83
2016-04-06T04:16:33.610Z,8.69
2016-04-06T04:17:33.582Z,8.73
2016-04-06T04:18:33.553Z,8.73
2016-04-06T04:19:33.649Z,8.75
2016-04-06T04:20:33.496Z,8.71
2016-04-06T04:21:33.483Z,8.81
2016-04-06T04:22:33.470Z,8.84
2016-04-06T04:23:33.426Z,8.84
2016-04-06T04:24:33.413Z,8.78
2016-04-06T04:25:33.384Z,8.81
2016-04-06T04:26:33.356Z,8.66
2016-04-06T04:27:33.327Z,8.72
2016-04-06T04:28:33.298Z,8.81
2016-04-06T04:29:33.287Z,8.75
2016-04-06T04:30:33.242Z,8.72
2016-04-06T04:31:33.229Z,8.75
2016-04-06T04:32:33.200Z,8.72
2016-04-06T04:33:33.172Z,8.79
2016-04-06T04:34:33.142Z,8.71
2016-04-06T04:35:33.130Z,8.72
2016-04-06T04:36:33.101Z,8.72
2016-04-06T04:37:33.072Z,8.73
2016-04-06T04:38:33.044Z,8.76
2016-04-06T04:39:33.016Z,8.6
2016-04-06T04:40:33.003Z,8.75
2016-04-06T04:41:32.989Z,8.81
2016-04-06T04:42:32.946Z,8.75
2016-04-06T04:43:32.949Z,8.68
2016-04-06T04:44:32.904Z,8.65
2016-04-06T04:45:32.875Z,8.71
2016-04-06T04:46:32.847Z,8.62
2016-04-06T04:47:32.834Z,8.6
2016-04-06T04:48:32.822Z,8.65
2016-04-06T04:49:32.761Z,8.62
2016-04-06T04:50:32.732Z,8.6
2016-04-06T04:51:32.720Z,8.55
2016-04-06T04:52:32.707Z,8.54
2016-04-06T04:53:32.662Z,8.58
2016-04-06T04:54:32.510Z,8.6
2016-04-06T04:55:32.621Z,8.65
2016-04-06T04:56:32.577Z,8.57
2016-04-06T04:57:32.565Z,8.55
2016-04-06T04:58:32.535Z,8.58
2016-04-06T04:59:32.507Z,8.55
2016-04-06T05:00:32.495Z,8.48
2016-04-06T05:01:32.465Z,8.54
2016-04-06T05:02:32.437Z,8.55
2016-04-06T05:03:32.408Z,8.54
2016-04-06T05:04:32.395Z,8.57
2016-04-06T05:05:32.382Z,8.53
2016-04-06T05:06:32.339Z,8.44
2016-04-06T05:07:32.310Z,8.47
2016-04-06T05:08:32.281Z,8.53
2016-04-06T05:09:32.253Z,8.47
2016-04-06T05:10:32.225Z,8.5
2016-04-06T05:11:32.211Z,8.5
2016-04-06T05:12:32.027Z,8.47
2016-04-06T05:13:32.155Z,8.53
2016-04-06T05:14:32.141Z,8.57
2016-04-06T05:15:32.097Z,8.51
2016-04-06T05:16:32.068Z,8.5
2016-04-06T05:17:32.040Z,8.55
2016-04-06T05:18:32.027Z,8.55
2016-04-06T05:19:32.014Z,8.54
2016-04-06T05:20:31.969Z,8.65
2016-04-06T05:21:31.972Z,8.6
2016-04-06T05:22:31.913Z,8.54
2016-04-06T05:23:31.899Z,8.58
2016-04-06T05:24:31.871Z,8.53
2016-04-06T05:25:31.843Z,8.58
2016-04-06T05:26:31.829Z,8.62
2016-04-06T05:27:31.801Z,8.66
2016-04-06T05:28:31.768Z,8.65
2016-04-06T05:29:31.739Z,8.58
2016-04-06T05:30:31.726Z,8.55
2016-04-06T05:31:31.698Z,8.54
2016-04-06T05:32:31.669Z,8.63
2016-04-06T05:33:31.640Z,8.54
2016-04-06T05:34:31.612Z,8.57
2016-04-06T05:35:31.584Z,8.58
2016-04-06T05:36:31.571Z,8.63
2016-04-06T05:37:31.542Z,8.57
2016-04-06T05:38:31.513Z,8.54
2016-04-06T05:39:31.485Z,8.69
2016-04-06T05:40:31.456Z,8.63
2016-04-06T05:41:31.443Z,8.72
2016-04-06T05:42:31.415Z,8.71
2016-04-06T05:43:31.386Z,8.78
2016-04-06T05:44:31.358Z,8.72
2016-04-06T05:45:31.329Z,8.72
2016-04-06T05:46:31.316Z,8.69
2016-04-06T05:47:31.272Z,8.72
2016-04-06T05:48:31.258Z,8.73
2016-04-06T05:49:31.230Z,8.72
2016-04-06T05:50:31.202Z,8.73
2016-04-06T05:51:31.188Z,8.79
2016-04-06T05:52:31.160Z,8.81
2016-04-06T05:53:31.132Z,8.83
2016-04-06T05:54:31.103Z,8.78
2016-04-06T05:55:31.074Z,8.75
2016-04-06T05:56:31.046Z,8.71
2016-04-06T05:57:31.032Z,8.86
2016-04-06T05:58:31.161Z,8.78
2016-04-06T05:59:30.977Z,8.93
2016-04-06T06:00:30.947Z,8.84
2016-04-06T06:01:30.794Z,8.87
2016-04-06T06:02:30.921Z,8.81
2016-04-06T06:03:30.904Z,8.91
2016-04-06T06:04:30.905Z,8.86
2016-04-06T06:05:30.922Z,8.94
2016-04-06T06:06:30.954Z,8.91
2016-04-06T06:07:30.972Z,8.9
2016-04-06T06:08:30.981Z,8.99
2016-04-06T06:09:30.969Z,8.97
2016-04-06T06:10:30.972Z,9.02
2016-04-06T06:11:30.943Z,9.05
2016-04-06T06:12:30.963Z,9.13
2016-04-06T06:13:30.995Z,9.05
2016-04-06T06:14:30.909Z,9.13
2016-04-06T06:15:30.902Z,9.21
2016-04-06T06:16:30.879Z,9.18
2016-04-06T06:17:30.856Z,9.1
2016-04-06T06:18:30.848Z,9.16
2016-04-06T06:19:30.821Z,9.28
2016-04-06T06:20:30.795Z,9.3
2016-04-06T06:21:30.753Z,9.32
2016-04-06T06:22:30.742Z,9.34
2016-04-06T06:23:30.732Z,9.34
2016-04-06T06:24:30.704Z,9.2
2016-04-06T06:25:30.661Z,9.31
2016-04-06T06:26:30.649Z,9.32
2016-04-06T06:27:30.621Z,9.28
2016-04-06T06:28:30.625Z,9.43
2016-04-06T06:29:30.596Z,9.43
2016-04-06T06:30:30.568Z,9.46
2016-04-06T06:31:30.524Z,9.42
2016-04-06T06:32:30.512Z,9.46
2016-04-06T06:33:30.483Z,9.48
2016-04-06T06:34:30.454Z,9.46
2016-04-06T06:35:30.426Z,9.49
2016-04-06T06:36:30.398Z,9.5
2016-04-06T06:37:30.229Z,9.49
2016-04-06T06:38:30.371Z,9.58
2016-04-06T06:39:30.359Z,9.56
2016-04-06T06:40:30.315Z,9.64
2016-04-06T06:41:30.287Z,9.64
2016-04-06T06:42:30.257Z,9.66
2016-04-06T06:43:30.260Z,9.79
2016-04-06T06:44:30.216Z,9.86
2016-04-06T06:45:30.188Z,9.88
2016-04-06T06:46:30.159Z,9.91
2016-04-06T06:47:30.130Z,9.94
2016-04-06T06:48:30.101Z,9.83
2016-04-06T06:49:30.104Z,9.93
2016-04-06T06:50:30.061Z,9.96
2016-04-06T06:51:30.031Z,9.99
2016-04-06T06:52:30.019Z,9.85
2016-04-06T06:53:29.990Z,9.88
2016-04-06T06:54:29.977Z,9.71
2016-04-06T06:55:29.933Z,9.89
2016-04-06T06:56:29.920Z,9.86
2016-04-06T06:57:29.908Z,9.75
2016-04-06T06:58:29.878Z,9.91
2016-04-06T06:59:29.849Z,9.66
2016-04-06T07:00:29.821Z,9.71
2016-04-06T07:01:29.809Z,9.73
2016-04-06T07:02:29.780Z,9.85
2016-04-06T07:03:29.752Z,9.73
2016-04-06T07:04:29.738Z,9.75
2016-04-06T07:05:29.710Z,9.76
2016-04-06T07:06:29.682Z,9.66
2016-04-06T07:07:29.652Z,9.6
2016-04-06T07:08:29.640Z,9.6
2016-04-06T07:09:29.612Z,9.73
2016-04-06T07:10:29.583Z,9.64
2016-04-06T07:11:29.554Z,9.78
2016-04-06T07:12:29.541Z,9.68
2016-04-06T07:13:29.512Z,9.78
2016-04-06T07:14:29.500Z,9.78
2016-04-06T07:15:29.455Z,9.79
2016-04-06T07:16:29.442Z,9.83
2016-04-06T07:17:29.414Z,9.91
2016-04-06T07:18:29.229Z,9.89
2016-04-06T07:19:29.372Z,9.91
2016-04-06T07:20:29.345Z,9.97
2016-04-06T07:21:29.315Z,9.97
2016-04-06T07:22:29.303Z,9.97
2016-04-06T07:23:29.259Z,10
2016-04-06T07:24:29.246Z,10
2016-04-06T07:25:29.233Z,10.07
2016-04-06T07:26:29.188Z,10.01
2016-04-06T07:27:29.191Z,9.97
2016-04-06T07:28:29.147Z,9.94
2016-04-06T07:29:29.118Z,9.93
2016-04-06T07:30:29.089Z,9.91
2016-04-06T07:31:29.092Z,9.82
2016-04-06T07:32:29.063Z,9.83
2016-04-06T07:33:29.036Z,9.86
2016-04-06T07:34:29.022Z,9.85
2016-04-06T07:35:28.978Z,9.82
2016-04-06T07:36:28.965Z,9.89
2016-04-06T07:37:28.937Z,9.85
2016-04-06T07:38:28.924Z,9.82
2016-04-06T07:39:28.880Z,9.83
2016-04-06T07:40:28.851Z,9.79
2016-04-06T07:41:28.838Z,9.78
2016-04-06T07:42:28.810Z,9.73
2016-04-06T07:43:28.781Z,9.71
2016-04-06T07:44:28.752Z,9.73
2016-04-06T07:45:28.755Z,9.71
2016-04-06T07:46:28.727Z,9.75
2016-04-06T07:47:28.682Z,9.76
2016-04-06T07:48:28.670Z,9.81
2016-04-06T07:49:28.626Z,9.76
2016-04-06T07:50:28.675Z,9.79
2016-04-06T07:51:28.584Z,9.78
2016-04-06T07:52:28.586Z,9.71
2016-04-06T07:53:28.542Z,9.75
2016-04-06T07:54:28.529Z,9.73
2016-04-06T07:55:28.500Z,9.85
2016-04-06T07:56:28.472Z,9.93
2016-04-06T07:57:28.444Z,9.89
2016-04-06T07:58:28.431Z,10
2016-04-06T07:59:28.402Z,9.94
2016-04-06T08:00:28.374Z,9.96
2016-04-06T08:01:28.344Z,10.03
2016-04-06T08:02:28.317Z,10.14
2016-04-06T08:03:28.288Z,10.22
2016-04-06T08:04:28.290Z,10.26
2016-04-06T08:05:28.371Z,10.37
2016-04-06T08:06:28.233Z,10.4
2016-04-06T08:07:28.221Z,10.44
2016-04-06T08:08:28.177Z,10.43
2016-04-06T08:09:28.163Z,10.56
2016-04-06T08:10:28.135Z,10.51
2016-04-06T08:11:28.107Z,10.52
2016-04-06T08:12:28.093Z,10.62
2016-04-06T08:13:28.065Z,10.63
2016-04-06T08:14:28.037Z,10.71
2016-04-06T08:15:28.039Z,10.6
2016-04-06T08:16:27.995Z,10.83
2016-04-06T08:17:27.950Z,10.78
2016-04-06T08:18:27.953Z,10.81
2016-04-06T08:19:27.940Z,10.77
2016-04-06T08:20:27.833Z,10.78
2016-04-06T08:21:27.883Z,10.71
2016-04-06T08:22:27.854Z,10.91
2016-04-06T08:23:27.826Z,10.92
2016-04-06T08:24:27.829Z,10.88
2016-04-06T08:25:27.784Z,10.83
2016-04-06T08:26:27.756Z,10.96
2016-04-06T08:27:27.742Z,10.78
2016-04-06T08:28:27.715Z,10.84
2016-04-06T08:29:27.702Z,10.78
2016-04-06T08:30:27.658Z,10.94
2016-04-06T08:31:27.644Z,10.92
2016-04-06T08:32:27.616Z,10.77
2016-04-06T08:33:27.619Z,10.66
2016-04-06T08:34:27.575Z,10.7
2016-04-06T08:35:27.562Z,10.52
2016-04-06T08:36:27.517Z,10.63
2016-04-06T08:37:27.504Z,10.62
2016-04-06T08:38:27.476Z,10.66
2016-04-06T08:39:27.463Z,10.78
2016-04-06T08:40:27.435Z,10.77
2016-04-06T08:41:27.405Z,10.8
2016-04-06T08:42:27.393Z,10.77
2016-04-06T08:43:27.365Z,10.78
2016-04-06T08:44:27.336Z,10.71
2016-04-06T08:45:27.323Z,10.65
2016-04-06T08:46:27.294Z,10.7
2016-04-06T08:47:27.266Z,10.58
2016-04-06T08:48:27.253Z,10.58
2016-04-06T08:49:27.223Z,10.43
2016-04-06T08:50:27.196Z,10.4
2016-04-06T08:51:27.167Z,10.34
2016-04-06T08:52:27.154Z,10.24
2016-04-06T08:53:27.142Z,10.32
2016-04-06T08:54:27.112Z,10.33
2016-04-06T08:55:27.081Z,10.42
2016-04-06T08:56:27.053Z,10.39
2016-04-06T08:57:27.040Z,10.43
2016-04-06T08:58:27.027Z,10.46
2016-04-06T08:59:26.983Z,10.37
2016-04-06T09:00:26.969Z,10.37
2016-04-06T09:01:26.942Z,10.43
2016-04-06T09:02:26.913Z,10.36
2016-04-06T09:03:26.884Z,10.44
2016-04-06T09:04:26.886Z,10.43
2016-04-06T09:05:26.842Z,10.39
2016-04-06T09:06:26.830Z,10.43
2016-04-06T09:07:26.786Z,10.55
2016-04-06T09:08:26.788Z,10.68
2016-04-06T09:09:26.760Z,10.74
2016-04-06T09:10:26.730Z,10.96
2016-04-06T09:11:26.702Z,10.92
2016-04-06T09:12:30.098Z,10.99
2016-04-06T09:13:26.692Z,11.01
2016-04-06T09:14:26.633Z,11.13
2016-04-06T09:15:26.604Z,11.32
2016-04-06T09:16:26.575Z,11.43
2016-04-06T09:17:26.562Z,11.67
2016-04-06T09:18:26.534Z,11.74
2016-04-06T09:19:26.959Z,11.89
2016-04-06T09:20:26.523Z,11.71
2016-04-06T09:21:26.496Z,11.74
2016-04-06T09:22:26.451Z,11.97
2016-04-06T09:23:26.437Z,11.89
2016-04-06T09:24:26.410Z,12.02
2016-04-06T09:25:26.396Z,12.06
2016-04-06T09:26:26.368Z,12.16
2016-04-06T09:27:26.339Z,12.21
2016-04-06T09:28:26.311Z,12.06
2016-04-06T09:29:26.282Z,12.01
2016-04-06T09:30:26.269Z,12.05
2016-04-06T09:31:26.256Z,12.05
2016-04-06T09:32:26.244Z,12.04
2016-04-06T09:33:26.215Z,12.04
2016-04-06T09:34:26.186Z,12.04
2016-04-06T09:35:26.158Z,11.93
2016-04-06T09:36:26.145Z,11.85
2016-04-06T09:37:26.132Z,12.06
2016-04-06T09:38:26.119Z,12.05
2016-04-06T09:39:26.075Z,12.12
2016-04-06T09:40:26.077Z,12.05
2016-04-06T09:41:26.033Z,12.13
2016-04-06T09:42:25.900Z,12.2
2016-04-06T09:43:25.996Z,12.3
2016-04-06T09:44:25.984Z,12.51
2016-04-06T09:45:25.948Z,12.46
2016-04-06T09:46:25.763Z,12.56
2016-04-06T09:47:25.907Z,12.64
2016-04-06T09:48:25.878Z,12.71
2016-04-06T09:49:25.880Z,12.77
2016-04-06T09:50:25.837Z,12.77
2016-04-06T09:51:25.824Z,12.81
2016-04-06T09:52:25.796Z,12.71
2016-04-06T09:53:25.782Z,12.69
2016-04-06T09:54:25.754Z,12.92
2016-04-06T09:55:25.741Z,12.92
2016-04-06T09:56:25.712Z,13.07
2016-04-06T09:57:25.699Z,13.22
2016-04-06T09:58:25.671Z,12.96
2016-04-06T09:59:25.657Z,13.02
2016-04-06T10:00:25.629Z,13.09
2016-04-06T10:01:25.600Z,13.2
2016-04-06T10:02:25.588Z,13.14
2016-04-06T10:03:25.559Z,13.17
2016-04-06T10:04:25.546Z,13.2
2016-04-06T10:05:25.534Z,13.02
2016-04-06T10:06:25.504Z,13.09
2016-04-06T10:07:25.476Z,12.93
2016-04-06T10:08:25.464Z,12.6
2016-04-06T10:09:25.434Z,12.7
2016-04-06T10:10:25.437Z,12.74
2016-04-06T10:11:25.393Z,12.74
2016-04-06T10:12:25.380Z,12.75
2016-04-06T10:13:25.352Z,12.63
2016-04-06T10:14:25.339Z,12.6
2016-04-06T10:15:25.325Z,12.71
2016-04-06T10:16:25.297Z,12.77
2016-04-06T10:17:25.269Z,12.79
2016-04-06T10:18:25.256Z,12.95
2016-04-06T10:19:25.227Z,13.03
2016-04-06T10:20:25.214Z,13.07
2016-04-06T10:21:25.186Z,13.17
2016-04-06T10:22:25.172Z,13.32
2016-04-06T10:23:25.144Z,13.29
2016-04-06T10:24:25.147Z,13.52
2016-04-06T10:25:25.102Z,13.52
2016-04-06T10:26:25.090Z,13.52
2016-04-06T10:27:25.061Z,13.4
2016-04-06T10:28:25.049Z,13.36
2016-04-06T10:29:25.020Z,13.33
2016-04-06T10:30:25.006Z,13.4
2016-04-06T10:31:24.979Z,13.38
2016-04-06T10:32:24.949Z,13.33
2016-04-06T10:33:24.937Z,13.69
2016-04-06T10:34:24.923Z,13.69
2016-04-06T10:35:24.896Z,13.69
2016-04-06T10:36:24.867Z,13.79
2016-04-06T10:37:24.853Z,13.79
2016-04-06T10:38:24.825Z,13.89
2016-04-06T10:39:24.828Z,13.95
2016-04-06T10:40:24.784Z,13.63
2016-04-06T10:41:24.770Z,13.63
2016-04-06T10:42:24.758Z,13.63
2016-04-06T10:43:24.729Z,13.7
2016-04-06T10:44:24.716Z,13.94
2016-04-06T10:45:24.688Z,13.91
2016-04-06T10:46:24.675Z,13.81
2016-04-06T10:47:24.647Z,13.96
2016-04-06T10:48:24.618Z,14.04
2016-04-06T10:49:24.605Z,13.92
2016-04-06T10:50:24.591Z,14.02
2016-04-06T10:51:24.563Z,13.83
2016-04-06T10:52:24.550Z,13.81
2016-04-06T10:53:24.538Z,13.89
2016-04-06T10:54:24.508Z,14.06
2016-04-06T10:55:25.215Z,13.92
2016-04-06T10:56:24.343Z,13.92
2016-04-06T10:57:24.454Z,13.69
2016-04-06T10:58:24.426Z,13.69
2016-04-06T10:59:24.413Z,13.77
2016-04-06T11:00:24.399Z,13.99
2016-04-06T11:01:24.371Z,13.81
2016-04-06T11:02:24.358Z,13.8
2016-04-06T11:03:24.346Z,13.94
2016-04-06T11:04:24.301Z,14.14
2016-04-06T11:05:24.287Z,14.1
2016-04-06T11:06:24.212Z,14.14
2016-04-06T11:07:24.248Z,14.16
2016-04-06T11:08:24.218Z,14.16
2016-04-06T11:09:24.189Z,14.06
2016-04-06T11:10:24.193Z,13.98
2016-04-06T11:11:24.148Z,13.92
2016-04-06T11:12:24.135Z,13.77
2016-04-06T11:13:24.123Z,13.74
2016-04-06T11:14:24.095Z,13.74
2016-04-06T11:15:24.065Z,13.63
2016-04-06T11:16:24.067Z,13.55
2016-04-06T11:17:24.024Z,13.52
2016-04-06T11:18:24.027Z,13.54
2016-04-06T11:19:23.997Z,13.38
2016-04-06T11:20:23.985Z,13.36
2016-04-06T11:21:23.956Z,13.27
2016-04-06T11:22:23.928Z,13.12
2016-04-06T11:23:23.915Z,13.21
2016-04-06T11:24:23.902Z,13.2
2016-04-06T11:25:23.874Z,13.36
2016-04-06T11:26:23.860Z,13.38
2016-04-06T11:27:23.847Z,13.61
2016-04-06T11:28:23.819Z,13.73
2016-04-06T11:29:23.790Z,13.8
2016-04-06T11:30:23.777Z,13.95
2016-04-06T11:31:23.748Z,13.77
2016-04-06T11:32:23.735Z,13.84
2016-04-06T11:33:23.707Z,13.94
2016-04-06T11:34:23.523Z,13.91
2016-04-06T11:35:23.666Z,14.06
2016-04-06T11:36:23.637Z,14.13
2016-04-06T11:37:23.624Z,14.07
2016-04-06T11:38:23.612Z,14.01
2016-04-06T11:39:23.583Z,13.81
2016-04-06T11:40:23.554Z,13.7
2016-04-06T11:41:23.541Z,13.52
2016-04-06T11:42:23.513Z,13.46
2016-04-06T11:43:23.500Z,13.46
2016-04-06T11:44:23.487Z,13.52
2016-04-06T11:45:23.458Z,13.7
2016-04-06T11:46:23.445Z,13.76
2016-04-06T11:47:23.417Z,13.73
2016-04-06T11:48:23.404Z,13.76
2016-04-06T11:49:23.391Z,13.95
2016-04-06T11:50:23.378Z,14.1
2016-04-06T11:51:23.350Z,14.09
2016-04-06T11:52:23.321Z,14.27
2016-04-06T11:53:23.308Z,14.21
2016-04-06T11:54:23.279Z,14.27
2016-04-06T11:55:23.266Z,14.06
2016-04-06T11:56:23.254Z,14.1
2016-04-06T11:57:23.225Z,14.16
2016-04-06T11:58:23.197Z,14.13
2016-04-06T11:59:23.183Z,14.14
2016-04-06T12:00:23.155Z,14.04
2016-04-06T12:01:23.142Z,13.8
2016-04-06T12:02:23.113Z,13.79
2016-04-06T12:03:23.101Z,14.02
2016-04-06T12:04:23.088Z,13.91
2016-04-06T12:05:23.043Z,14.01
2016-04-06T12:06:22.921Z,14.13
2016-04-06T12:07:23.017Z,14.27
2016-04-06T12:08:22.997Z,14.29
2016-04-06T12:09:22.967Z,14.35
2016-04-06T12:10:22.954Z,14.29
2016-04-06T12:11:22.925Z,14.28
2016-04-06T12:12:22.913Z,14.42
2016-04-06T12:13:22.885Z,14.37
2016-04-06T12:14:22.871Z,14.19
2016-04-06T12:15:22.858Z,14.16
2016-04-06T12:16:22.830Z,14.16
2016-04-06T12:17:22.818Z,14.07
2016-04-06T12:18:22.806Z,14.1
2016-04-06T12:19:22.778Z,14.19
2016-04-06T12:20:22.749Z,14.01
2016-04-06T12:21:22.751Z,13.91
2016-04-06T12:22:22.723Z,13.77
2016-04-06T12:23:22.694Z,13.92
2016-04-06T12:24:22.666Z,13.89
2016-04-06T12:25:22.653Z,14.14
2016-04-06T12:26:22.640Z,14.13
2016-04-06T12:27:22.611Z,14.28
2016-04-06T12:28:22.598Z,14.28
2016-04-06T12:29:22.585Z,14.5
2016-04-06T12:30:22.572Z,14.52
2016-04-06T12:31:22.544Z,14.64
2016-04-06T12:32:22.516Z,14.61
2016-04-06T12:33:22.502Z,14.75
2016-04-06T12:34:22.475Z,14.78
2016-04-06T12:35:22.446Z,14.71
2016-04-06T12:36:22.479Z,14.49
2016-04-06T12:37:22.419Z,14.25
2016-04-06T12:38:22.407Z,14.19
2016-04-06T12:39:22.377Z,14.17
2016-04-06T12:40:22.366Z,14.12
2016-04-06T12:41:22.337Z,14.31
2016-04-06T12:42:22.308Z,14.27
2016-04-06T12:43:22.295Z,14.32
2016-04-06T12:44:22.282Z,14.32
2016-04-06T12:45:22.254Z,14.32
2016-04-06T12:46:22.241Z,14.47
2016-04-06T12:47:22.212Z,14.44
2016-04-06T12:48:22.198Z,14.53
2016-04-06T12:49:22.171Z,14.54
2016-04-06T12:50:22.173Z,14.57
2016-04-06T12:51:22.159Z,14.67
2016-04-06T12:52:22.116Z,14.87
2016-04-06T12:53:22.088Z,15.03
2016-04-06T12:54:22.075Z,14.71
2016-04-06T12:55:22.045Z,14.8
2016-04-06T12:56:22.034Z,14.6
2016-04-06T12:57:22.019Z,14.53
2016-04-06T12:58:21.992Z,14.53
2016-04-06T12:59:21.978Z,14.56
2016-04-06T13:00:21.966Z,14.53
2016-04-06T13:01:21.953Z,14.56
2016-04-06T13:02:21.925Z,14.56
2016-04-06T13:03:21.896Z,14.56
2016-04-06T13:04:21.898Z,14.53
2016-04-06T13:05:21.855Z,14.44
2016-04-06T13:06:21.904Z,14.27
2016-04-06T13:07:21.813Z,14.28
2016-04-06T13:08:21.799Z,14.06
2016-04-06T13:09:21.788Z,14.19
2016-04-06T13:10:21.758Z,14.16